Česky Dansk Deutsch English Español Suomi Français Magyar Italiano Nederlands norsk Polski Português svenska Türkçe

 

Het Weer

Montlucon / Gueret (Frankrijk)

16:00, 7 april 2008 (GMT)

NWNNE
WE
SWSSE
Home            
Montlucon / Gueret Clermont-Ferrand Vichy Chateauroux Bourges Avord Limoges Nevers Saint-Yan Romorantin Brive Aurillac Poitiers Perigueux Le Puy St-Etienne Boutheon Tours Macon Auxerre Orleans Rodez Lyon / Bron Mende / Brenoux

Om een weerknop op uw website of weblog te plaatsen, copieer onderstaande code en plak die in uw pagina. In het eerste vakje staat HTML-code, in het tweede vakje UBB-code.


Add to Google

Details

Wind speed:3 bf, 8 kn, 4.1 m/s, 9.2 miles/h, 14.8 km/h
Wind direction:E, 080°
Visibility:Greater than 10000 m, 10 km, 32800 ft, 6.2 miles
Clouds:Ein wenig bewölkt at 3000 ft, 914 m
Temperature:8°C, 46°F
Dew-point:-6°C, 21°F
Atmospheric pressure:1004 hPa, 753.1 mmHg, 29.65 inHg, 0.991 atm
Relative humidity:36.4 %
METAR:LFBK 071600Z 08008KT 9999 FEW030 08/M06 Q1004

Snelkoppelingen

Actuele weersinformatie van de hele wereld. Voeg locaties toe met het plus (+) symbool. Deze snelkoppelingen kunnen worden toegevoegd aan Google.

Lid van de Technetium groep

website free tracking
StatCounter NetStat W3C Validator

19-05-2022 05:12:16
astro.technetium.be money.technetium.be phote.technetium.be tafeltennistafel.technetium.be www.ligfiets.net